createdAt,value
2023-01-27T00:01:05.922Z,28.30
2023-01-27T00:03:34.564Z,27.90
2023-01-27T00:10:38.152Z,25.10
2023-01-27T00:13:25.311Z,25.70
2023-01-27T00:15:53.498Z,25.50
2023-01-27T00:18:21.620Z,27.90
2023-01-27T00:21:07.954Z,23.00
2023-01-27T00:23:55.035Z,19.40
2023-01-27T00:26:23.086Z,18.70
2023-01-27T00:28:51.084Z,18.10
2023-01-27T00:31:39.513Z,17.20
2023-01-27T00:34:11.063Z,19.50
2023-01-27T00:36:41.458Z,22.10
2023-01-27T00:39:10.458Z,21.30
2023-01-27T00:41:39.297Z,19.00
2023-01-27T00:44:12.769Z,19.20
2023-01-27T00:49:13.544Z,16.60
2023-01-27T00:51:42.281Z,18.70
2023-01-27T00:54:11.260Z,18.50
2023-01-27T00:56:41.785Z,18.90
2023-01-27T00:59:13.746Z,17.80
2023-01-27T01:01:44.714Z,18.00
2023-01-27T01:04:13.458Z,16.70
2023-01-27T01:06:42.564Z,16.90
2023-01-27T01:09:11.835Z,17.10
2023-01-27T01:11:41.065Z,16.80
2023-01-27T01:14:10.717Z,18.00
2023-01-27T01:16:39.034Z,17.10
2023-01-27T01:19:08.075Z,17.80
2023-01-27T01:21:38.377Z,17.40
2023-01-27T01:28:50.384Z,15.90
2023-01-27T01:31:19.777Z,14.50
2023-01-27T01:33:48.184Z,15.80
2023-01-27T01:36:19.430Z,17.40
2023-01-27T01:38:48.448Z,15.20
2023-01-27T01:41:20.600Z,17.70
2023-01-27T01:43:49.534Z,17.10
2023-01-27T01:46:18.321Z,17.10
2023-01-27T01:49:00.800Z,16.00
2023-01-27T01:51:39.917Z,17.50
2023-01-27T01:54:17.001Z,16.50
2023-01-27T01:56:52.591Z,15.50
2023-01-27T01:59:28.643Z,17.40
2023-01-27T02:01:58.288Z,14.70
2023-01-27T02:04:28.498Z,15.90
2023-01-27T02:07:45.029Z,16.70
2023-01-27T02:10:13.881Z,17.20
2023-01-27T02:12:42.312Z,16.30
2023-01-27T02:15:12.407Z,15.20
2023-01-27T02:17:40.965Z,16.60
2023-01-27T02:20:16.229Z,16.70
2023-01-27T02:22:48.297Z,17.70
2023-01-27T02:25:37.103Z,16.60
2023-01-27T02:28:08.061Z,17.30
2023-01-27T02:30:36.237Z,17.60
2023-01-27T02:33:14.902Z,17.40
2023-01-27T02:35:54.261Z,19.30
2023-01-27T02:38:22.339Z,17.90
2023-01-27T02:40:52.204Z,18.20
2023-01-27T02:43:20.424Z,18.30
2023-01-27T02:45:48.514Z,18.50
2023-01-27T02:48:17.317Z,17.00
2023-01-27T02:50:48.073Z,17.40
2023-01-27T02:53:16.605Z,16.70
2023-01-27T02:55:45.593Z,17.20
2023-01-27T02:58:16.498Z,17.90
2023-01-27T03:00:50.350Z,18.60
2023-01-27T03:03:20.231Z,18.90
2023-01-27T03:05:51.533Z,16.90
2023-01-27T03:08:21.767Z,18.40
2023-01-27T03:10:53.245Z,17.90
2023-01-27T03:13:26.255Z,20.20
2023-01-27T03:16:18.734Z,20.40
2023-01-27T03:18:50.250Z,20.70
2023-01-27T03:21:22.251Z,20.50
2023-01-27T03:23:53.624Z,21.20
2023-01-27T03:26:26.266Z,16.40
2023-01-27T03:29:17.890Z,15.90
2023-01-27T03:31:48.389Z,16.70
2023-01-27T03:34:19.288Z,16.00
2023-01-27T03:37:20.958Z,16.20
2023-01-27T03:40:09.611Z,16.20
2023-01-27T03:42:58.903Z,16.50
2023-01-27T03:45:48.807Z,16.60
2023-01-27T03:48:22.325Z,17.30
2023-01-27T03:50:53.616Z,18.70
2023-01-27T03:53:23.639Z,19.80
2023-01-27T03:55:53.944Z,19.40
2023-01-27T03:58:27.342Z,19.60
2023-01-27T04:09:30.907Z,16.80
2023-01-27T04:12:04.552Z,17.30
2023-01-27T04:14:37.871Z,18.20
2023-01-27T04:17:10.955Z,19.10
2023-01-27T04:19:39.058Z,19.40
2023-01-27T04:22:07.465Z,19.30
2023-01-27T04:24:38.979Z,18.40
2023-01-27T04:27:09.159Z,19.30
2023-01-27T04:29:40.607Z,20.00
2023-01-27T04:32:12.876Z,19.10
2023-01-27T04:34:41.122Z,19.30
2023-01-27T04:37:09.377Z,19.40
2023-01-27T04:39:41.923Z,20.40
2023-01-27T04:42:10.349Z,18.90
2023-01-27T04:44:38.354Z,20.00
2023-01-27T04:47:06.789Z,18.10
2023-01-27T04:49:36.073Z,17.70
2023-01-27T04:52:04.901Z,16.40
2023-01-27T04:54:32.867Z,18.10
2023-01-27T04:57:05.748Z,17.70
2023-01-27T04:59:34.128Z,17.80
2023-01-27T05:02:04.671Z,16.10
2023-01-27T05:07:04.496Z,17.50
2023-01-27T05:09:32.826Z,18.20
2023-01-27T05:12:00.767Z,17.70
2023-01-27T05:14:29.093Z,16.40
2023-01-27T05:16:57.156Z,16.70
2023-01-27T05:19:25.763Z,16.70
2023-01-27T05:21:53.833Z,17.10
2023-01-27T05:24:22.624Z,14.30
2023-01-27T05:26:53.579Z,16.40
2023-01-27T05:29:21.948Z,15.60
2023-01-27T05:31:50.159Z,16.90
2023-01-27T05:34:18.759Z,16.70
2023-01-27T05:36:46.970Z,16.30
2023-01-27T05:39:16.496Z,15.60
2023-01-27T05:41:44.685Z,17.50
2023-01-27T05:44:13.175Z,17.50
2023-01-27T05:46:41.627Z,17.70
2023-01-27T05:49:09.725Z,17.00
2023-01-27T05:51:39.959Z,16.60
2023-01-27T05:54:08.800Z,16.10
2023-01-27T05:56:37.084Z,16.70
2023-01-27T05:59:06.164Z,15.80
2023-01-27T06:01:35.017Z,17.10
2023-01-27T06:04:03.436Z,17.30
2023-01-27T06:06:34.356Z,15.70
2023-01-27T06:09:02.907Z,15.80
2023-01-27T06:11:30.969Z,16.20
2023-01-27T08:13:17.738Z,19.30
2023-01-27T08:15:46.691Z,18.50
2023-01-27T08:18:14.715Z,17.50
2023-01-27T08:20:45.713Z,17.90
2023-01-27T08:23:14.325Z,19.10
2023-01-27T08:25:42.410Z,19.40
2023-01-27T08:28:10.434Z,21.60
2023-01-27T08:30:39.495Z,21.00
2023-01-27T08:33:07.595Z,21.10
2023-01-27T08:35:37.221Z,20.60
2023-01-27T08:38:05.738Z,21.90
2023-01-27T08:40:33.936Z,22.70
2023-01-27T08:43:04.680Z,22.20
2023-01-27T08:45:33.313Z,21.80
2023-01-27T08:48:01.532Z,19.70
2023-01-27T08:50:30.497Z,18.00
2023-01-27T08:53:01.789Z,18.20
2023-01-27T08:55:32.860Z,18.40
2023-01-27T08:58:00.997Z,18.30
2023-01-27T09:00:29.484Z,17.70
2023-01-27T09:02:57.485Z,16.80
2023-01-27T09:05:26.374Z,16.70
2023-01-27T09:07:54.895Z,16.10
2023-01-27T09:10:23.224Z,16.60
2023-01-27T09:12:51.618Z,17.00
2023-01-27T09:15:19.806Z,16.80
2023-01-27T09:17:48.579Z,16.30
2023-01-27T09:20:16.918Z,17.10
2023-01-27T09:22:45.499Z,16.30
2023-01-27T09:25:17.418Z,15.70
2023-01-27T09:27:45.491Z,15.90
2023-01-27T09:30:14.990Z,14.80
2023-01-27T09:32:43.252Z,14.90
2023-01-27T09:35:11.817Z,14.30
2023-01-27T09:37:47.467Z,14.90
2023-01-27T09:40:44.076Z,14.30
2023-01-27T09:43:43.452Z,15.10
2023-01-27T09:46:14.879Z,14.40
2023-01-27T09:48:46.126Z,15.60
2023-01-27T09:51:28.292Z,14.90
2023-01-27T09:54:06.691Z,16.60
2023-01-27T09:56:53.609Z,15.80
2023-01-27T09:59:33.624Z,16.90
2023-01-27T10:02:08.077Z,17.30
2023-01-27T10:04:46.754Z,17.40
2023-01-27T10:07:24.317Z,15.90
2023-01-27T10:10:17.685Z,16.00
2023-01-27T10:12:52.921Z,15.20
2023-01-27T10:15:50.272Z,15.50
2023-01-27T10:18:24.261Z,14.40
2023-01-27T10:21:14.084Z,14.60
2023-01-27T10:24:02.436Z,14.80
2023-01-27T10:26:49.642Z,14.60
2023-01-27T10:29:26.454Z,14.60
2023-01-27T10:32:22.813Z,14.40
2023-01-27T10:35:20.906Z,13.60
2023-01-27T10:38:05.013Z,13.70
2023-01-27T10:40:36.138Z,12.80
2023-01-27T10:43:25.277Z,13.70
2023-01-27T10:45:58.664Z,15.40
2023-01-27T10:48:36.147Z,16.10
2023-01-27T10:51:23.061Z,16.30
2023-01-27T10:54:16.287Z,16.40
2023-01-27T10:56:47.840Z,16.30
2023-01-27T10:59:38.154Z,16.50
2023-01-27T11:02:09.774Z,16.00
2023-01-27T11:04:41.218Z,15.20
2023-01-27T11:07:19.630Z,16.00
2023-01-27T11:09:59.312Z,16.50
2023-01-27T11:12:33.141Z,14.70
2023-01-27T11:15:02.855Z,16.00
2023-01-27T11:17:42.806Z,14.90
2023-01-27T11:20:37.162Z,14.20
2023-01-27T11:23:26.842Z,15.20
2023-01-27T11:25:56.978Z,15.10
2023-01-27T11:28:50.211Z,16.20
2023-01-27T11:31:37.524Z,16.20
2023-01-27T11:34:11.059Z,14.80
2023-01-27T11:36:39.012Z,17.00
2023-01-27T11:39:08.842Z,16.70
2023-01-27T11:41:41.800Z,17.20
2023-01-27T11:44:24.627Z,17.00
2023-01-27T11:46:53.335Z,18.10
2023-01-27T11:49:32.170Z,17.20
2023-01-27T11:52:13.558Z,18.00
2023-01-27T11:54:56.721Z,17.60
2023-01-27T11:57:27.506Z,17.60
2023-01-27T12:00:01.860Z,18.80
2023-01-27T14:13:22.023Z,22.50
2023-01-27T14:15:54.172Z,23.10
2023-01-27T14:18:26.198Z,19.90
2023-01-27T14:21:41.553Z,20.70
2023-01-27T14:24:28.936Z,18.10
2023-01-27T14:29:33.095Z,18.70
2023-01-27T14:32:31.177Z,18.20
2023-01-27T14:35:35.742Z,18.30
2023-01-27T14:38:20.924Z,18.40
2023-01-27T14:41:09.693Z,18.80
2023-01-27T14:43:56.814Z,18.80
2023-01-27T14:47:03.053Z,19.00
2023-01-27T14:50:03.717Z,19.00
2023-01-27T14:52:41.341Z,18.80
2023-01-27T14:55:33.132Z,19.00
2023-01-27T14:58:19.774Z,18.80
2023-01-27T15:01:05.624Z,20.20
2023-01-27T15:04:04.604Z,20.90
2023-01-27T15:06:40.095Z,20.00
2023-01-27T15:09:10.290Z,19.30
2023-01-27T15:11:50.217Z,19.30
2023-01-27T15:14:35.625Z,19.20
2023-01-27T15:17:33.896Z,18.60
2023-01-27T15:20:38.666Z,18.80
2023-01-27T15:23:17.890Z,18.70
2023-01-27T15:25:47.589Z,17.80
2023-01-27T15:28:15.650Z,17.70
2023-01-27T15:31:14.243Z,18.10
2023-01-27T15:33:44.873Z,17.40
2023-01-27T15:36:27.112Z,18.70
2023-01-27T15:39:09.319Z,19.40
2023-01-27T15:41:36.268Z,18.00
2023-01-27T15:44:25.051Z,18.80
2023-01-27T15:46:53.100Z,19.20
2023-01-27T15:49:27.560Z,18.00
2023-01-27T15:51:56.251Z,18.80
2023-01-27T15:54:31.396Z,18.80
2023-01-27T15:56:59.898Z,18.60
2023-01-27T15:59:29.961Z,18.40
2023-01-27T16:02:11.494Z,17.90
2023-01-27T16:04:39.420Z,19.50
2023-01-27T16:07:06.699Z,18.50
2023-01-27T16:09:40.175Z,19.80
2023-01-27T16:15:34.567Z,18.80
2023-01-27T16:18:07.540Z,18.60
2023-01-27T16:20:52.978Z,18.50
2023-01-27T16:23:41.166Z,18.30
2023-01-27T16:26:19.956Z,18.60
2023-01-27T16:28:48.432Z,18.00
2023-01-27T16:31:20.473Z,16.90
2023-01-27T16:33:47.797Z,17.40
2023-01-27T16:36:26.794Z,17.70
2023-01-27T16:38:54.597Z,18.60
2023-01-27T16:41:29.313Z,17.30
2023-01-27T16:44:03.758Z,17.80
2023-01-27T16:46:42.030Z,18.60
2023-01-27T16:49:18.158Z,17.30
2023-01-27T16:51:45.407Z,17.80
2023-01-27T16:54:21.633Z,18.30
2023-01-27T16:56:51.731Z,17.90
2023-01-27T16:59:24.108Z,18.60
2023-01-27T17:01:51.920Z,18.40
2023-01-27T17:04:26.214Z,18.00
2023-01-27T17:06:56.325Z,18.50
2023-01-27T17:09:25.131Z,16.50
2023-01-27T17:11:53.487Z,17.90
2023-01-27T17:14:30.511Z,16.90
2023-01-27T17:17:00.550Z,17.10
2023-01-27T17:19:29.481Z,16.70
2023-01-27T17:22:00.418Z,17.70
2023-01-27T17:24:32.386Z,17.30
2023-01-27T17:27:05.721Z,16.30
2023-01-27T17:29:40.477Z,16.00
2023-01-27T17:32:27.452Z,15.70
2023-01-27T17:34:59.747Z,14.70
2023-01-27T17:37:29.449Z,15.80
2023-01-27T17:40:00.975Z,15.80
2023-01-27T17:42:29.857Z,14.70
2023-01-27T17:45:23.523Z,15.30
2023-01-27T17:47:50.321Z,15.60
2023-01-27T17:50:21.587Z,15.50
2023-01-27T17:52:52.389Z,15.40
2023-01-27T17:55:21.383Z,15.80
2023-01-27T17:57:53.794Z,15.80
2023-01-27T18:00:25.215Z,16.40
2023-01-27T18:03:17.307Z,15.60
2023-01-27T18:05:44.769Z,16.40
2023-01-27T18:08:11.796Z,16.10
2023-01-27T20:14:49.818Z,20.20
2023-01-27T20:17:17.118Z,19.00
2023-01-27T20:19:43.891Z,19.70
2023-01-27T20:22:12.307Z,18.70
2023-01-27T20:24:39.669Z,18.10
2023-01-27T20:27:06.655Z,17.80
2023-01-27T20:29:35.002Z,18.60
2023-01-27T20:32:01.764Z,18.00
2023-01-27T20:34:28.720Z,18.00
2023-01-27T20:36:56.448Z,17.10
2023-01-27T20:39:23.561Z,17.90
2023-01-27T20:41:50.901Z,18.70
2023-01-27T20:44:17.863Z,18.00
2023-01-27T20:46:45.139Z,17.90
2023-01-27T20:49:11.837Z,17.70
2023-01-27T20:51:38.828Z,17.70
2023-01-27T20:54:05.877Z,16.80
2023-01-27T20:56:32.698Z,17.50
2023-01-27T20:59:01.010Z,17.60
2023-01-27T21:01:27.935Z,17.70
2023-01-27T21:03:54.807Z,17.90
2023-01-27T21:06:22.837Z,17.60
2023-01-27T21:08:49.783Z,17.30
2023-01-27T21:11:18.191Z,16.90
2023-01-27T21:13:45.707Z,17.40
2023-01-27T21:16:12.736Z,18.00
2023-01-27T21:18:40.428Z,17.80
2023-01-27T21:21:07.396Z,17.70
2023-01-27T21:23:34.808Z,17.30
2023-01-27T21:26:08.565Z,17.00
2023-01-27T21:28:36.048Z,16.70
2023-01-27T21:31:07.323Z,17.30
2023-01-27T21:33:38.478Z,17.50
2023-01-27T21:36:10.557Z,17.10
2023-01-27T21:38:38.294Z,17.10
2023-01-27T21:41:37.279Z,17.00
2023-01-27T21:44:23.289Z,16.50
2023-01-27T21:46:50.404Z,16.70
2023-01-27T21:49:17.360Z,16.20
2023-01-27T21:51:44.309Z,17.50
2023-01-27T21:54:11.404Z,16.90
2023-01-27T21:56:38.187Z,16.40
2023-01-27T21:59:04.807Z,17.30
2023-01-27T22:01:33.614Z,16.30
2023-01-27T22:04:00.680Z,17.60
2023-01-27T22:06:30.816Z,16.60
2023-01-27T22:08:57.657Z,17.10
2023-01-27T22:11:24.542Z,17.30
2023-01-27T22:13:52.165Z,17.60
2023-01-27T22:16:19.662Z,16.40
2023-01-27T22:18:46.584Z,16.30
2023-01-27T22:21:13.185Z,17.70
2023-01-27T22:23:40.007Z,16.50
2023-01-27T22:26:08.628Z,21.00
2023-01-27T22:28:35.378Z,18.40
2023-01-27T22:31:02.147Z,17.70
2023-01-27T22:33:31.809Z,19.10
2023-01-27T22:36:00.185Z,17.90
2023-01-27T22:38:26.826Z,19.40
2023-01-27T22:40:57.399Z,21.70
2023-01-27T22:43:24.086Z,17.60
2023-01-27T22:45:51.560Z,18.00
2023-01-27T22:48:18.624Z,16.80
2023-01-27T22:50:45.258Z,16.70
2023-01-27T22:53:12.311Z,17.10
2023-01-27T22:55:39.061Z,16.90
2023-01-27T22:58:05.833Z,16.70
2023-01-27T23:00:32.417Z,16.90
2023-01-27T23:03:00.379Z,16.20
2023-01-27T23:05:27.157Z,16.40
2023-01-27T23:07:53.728Z,16.90
2023-01-27T23:10:21.038Z,17.70
2023-01-27T23:12:50.051Z,16.80
2023-01-27T23:15:17.019Z,17.00
2023-01-27T23:17:44.076Z,17.00
2023-01-27T23:20:11.483Z,17.10
2023-01-27T23:22:38.970Z,16.30
2023-01-27T23:25:06.198Z,16.80
2023-01-27T23:27:33.548Z,16.90
2023-01-27T23:30:00.719Z,16.50
2023-01-27T23:32:27.544Z,17.10
2023-01-27T23:34:54.156Z,18.10
2023-01-27T23:37:21.158Z,16.80
2023-01-27T23:39:53.721Z,17.70
2023-01-27T23:42:21.797Z,17.00
2023-01-27T23:44:49.654Z,16.70
2023-01-27T23:47:17.382Z,16.30
2023-01-27T23:49:45.775Z,15.90
2023-01-27T23:52:12.649Z,17.00
2023-01-27T23:54:39.274Z,16.40
2023-01-27T23:57:07.522Z,17.30
2023-01-27T23:59:34.941Z,16.50
